createdAt,value
2023-05-10T00:00:46.046Z,86.78
2023-05-10T00:03:48.690Z,87.99
2023-05-10T00:06:51.316Z,88.30
2023-05-10T00:09:53.889Z,87.51
2023-05-10T00:12:57.853Z,88.27
2023-05-10T00:16:00.581Z,87.95
2023-05-10T00:19:03.244Z,87.02
2023-05-10T00:22:05.940Z,85.93
2023-05-10T00:25:10.248Z,85.52
2023-05-10T00:28:14.140Z,85.47
2023-05-10T00:31:16.635Z,85.60
2023-05-10T00:34:19.267Z,85.64
2023-05-10T00:37:21.991Z,85.24
2023-05-10T00:40:24.745Z,84.35
2023-05-10T00:43:28.570Z,84.66
2023-05-10T00:46:31.330Z,84.36
2023-05-10T00:49:33.990Z,84.20
2023-05-10T00:52:36.682Z,84.34
2023-05-10T00:55:39.609Z,84.11
2023-05-10T00:58:43.800Z,84.17
2023-05-10T01:01:46.512Z,83.87
2023-05-10T01:04:49.284Z,84.19
2023-05-10T01:07:51.974Z,83.04
2023-05-10T01:10:54.622Z,83.21
2023-05-10T01:13:59.486Z,82.72
2023-05-10T01:17:03.039Z,81.82
2023-05-10T01:20:06.415Z,80.70
2023-05-10T01:23:23.128Z,81.20
2023-05-10T01:26:52.395Z,79.78
2023-05-10T01:30:15.887Z,80.18
2023-05-10T01:33:20.399Z,79.22
2023-05-10T01:36:27.011Z,79.66
2023-05-10T01:39:39.469Z,80.53
2023-05-10T01:42:47.017Z,79.61
2023-05-10T01:45:54.114Z,80.25
2023-05-10T01:48:59.977Z,79.86
2023-05-10T01:52:05.906Z,80.91
2023-05-10T01:55:10.677Z,80.21
2023-05-10T01:58:16.449Z,80.11
2023-05-10T02:01:20.484Z,80.82
2023-05-10T02:04:25.752Z,81.58
2023-05-10T02:07:29.356Z,81.70
2023-05-10T02:10:32.761Z,81.86
2023-05-10T02:13:36.617Z,81.40
2023-05-10T02:16:41.082Z,82.64
2023-05-10T02:19:46.269Z,83.02
2023-05-10T02:22:50.740Z,82.24
2023-05-10T02:25:54.075Z,83.03
2023-05-10T02:28:57.135Z,84.28
2023-05-10T02:32:00.361Z,84.43
2023-05-10T02:35:05.250Z,83.65
2023-05-10T02:38:08.663Z,82.59
2023-05-10T02:41:11.856Z,82.08
2023-05-10T02:44:16.635Z,81.73
2023-05-10T02:47:19.939Z,81.09
2023-05-10T02:50:24.571Z,81.22
2023-05-10T02:53:33.526Z,81.44
2023-05-10T02:56:40.468Z,81.17
2023-05-10T02:59:43.782Z,81.32
2023-05-10T03:02:46.615Z,81.29
2023-05-10T03:05:50.745Z,81.66
2023-05-10T03:08:53.261Z,81.92
2023-05-10T03:12:00.691Z,81.94
2023-05-10T03:15:06.974Z,82.07
2023-05-10T03:18:11.692Z,81.85
2023-05-10T03:21:16.123Z,81.77
2023-05-10T03:24:21.045Z,81.14
2023-05-10T03:27:24.496Z,81.23
2023-05-10T03:30:26.907Z,80.66
2023-05-10T03:33:29.500Z,81.04
2023-05-10T03:36:33.508Z,81.03
2023-05-10T03:39:36.087Z,80.96
2023-05-10T03:42:38.648Z,80.80
2023-05-10T03:45:41.174Z,79.94
2023-05-10T03:48:43.909Z,80.39
2023-05-10T03:51:48.085Z,80.02
2023-05-10T03:54:50.649Z,79.43
2023-05-10T03:57:54.751Z,79.52
2023-05-10T04:00:57.204Z,79.98
2023-05-10T04:03:59.857Z,79.90
2023-05-10T04:07:03.898Z,80.09
2023-05-10T04:10:07.461Z,79.94
2023-05-10T04:13:10.819Z,80.49
2023-05-10T04:16:13.717Z,80.53
2023-05-10T04:19:16.400Z,80.01
2023-05-10T04:22:20.355Z,79.25
2023-05-10T04:25:23.080Z,78.17
2023-05-10T04:28:25.765Z,78.50
2023-05-10T04:31:29.012Z,78.37
2023-05-10T04:34:31.761Z,77.44
2023-05-10T04:37:35.572Z,76.70
2023-05-10T04:40:38.083Z,76.25
2023-05-10T04:43:40.646Z,75.86
2023-05-10T04:46:43.188Z,76.02
2023-05-10T04:49:46.231Z,75.90
2023-05-10T04:52:50.251Z,75.66
2023-05-10T04:55:52.820Z,75.20
2023-05-10T04:58:55.522Z,75.71
2023-05-10T05:01:58.108Z,75.06
2023-05-10T05:05:00.661Z,74.96
2023-05-10T05:08:05.227Z,75.28
2023-05-10T05:11:08.094Z,73.86
2023-05-10T05:14:10.708Z,73.54
2023-05-10T05:17:13.326Z,73.26
2023-05-10T05:20:16.451Z,72.66
2023-05-10T05:23:21.963Z,71.87
2023-05-10T05:26:24.653Z,71.43
2023-05-10T05:29:27.275Z,71.34
2023-05-10T05:32:30.027Z,71.42
2023-05-10T05:35:32.617Z,70.58
2023-05-10T05:38:36.660Z,70.71
2023-05-10T05:41:39.249Z,69.70
2023-05-10T05:44:42.072Z,69.17
2023-05-10T05:47:44.809Z,69.50
2023-05-10T05:50:47.568Z,68.88
2023-05-10T05:53:51.646Z,69.04
2023-05-10T05:56:56.158Z,68.73
2023-05-10T05:59:58.814Z,67.92
2023-05-10T06:03:01.524Z,67.82
2023-05-10T06:06:04.152Z,67.96
2023-05-10T06:09:08.122Z,66.75
2023-05-10T06:12:10.831Z,67.13
2023-05-10T06:15:13.905Z,66.93
2023-05-10T06:18:16.679Z,66.04
2023-05-10T06:21:19.188Z,65.61
2023-05-10T06:24:23.433Z,65.65
2023-05-10T06:27:26.042Z,65.07
2023-05-10T06:30:29.896Z,64.27
2023-05-10T06:33:33.077Z,64.01
2023-05-10T06:36:35.677Z,65.01
2023-05-10T06:39:39.545Z,64.58
2023-05-10T06:42:42.230Z,64.96
2023-05-10T06:45:44.732Z,66.82
2023-05-10T06:48:47.278Z,67.27
2023-05-10T06:51:50.026Z,67.47
2023-05-10T06:54:53.955Z,66.74
2023-05-10T06:57:56.658Z,66.46
2023-05-10T07:01:04.219Z,66.41
2023-05-10T07:04:08.372Z,67.74
2023-05-10T07:07:11.034Z,66.94
2023-05-10T07:10:15.181Z,65.23
2023-05-10T07:13:17.806Z,62.94
2023-05-10T07:16:20.801Z,61.52
2023-05-10T07:19:23.470Z,59.07
2023-05-10T07:22:25.947Z,59.35
2023-05-10T07:25:29.867Z,58.19
2023-05-10T07:28:32.481Z,56.83
2023-05-10T07:31:34.980Z,56.25
2023-05-10T07:34:37.525Z,55.81
2023-05-10T07:37:40.296Z,54.91
2023-05-10T07:40:44.265Z,54.74
2023-05-10T07:43:46.893Z,53.36
2023-05-10T07:46:49.752Z,52.96
2023-05-10T07:49:52.406Z,52.49
2023-05-10T07:52:54.882Z,52.59
2023-05-10T07:56:00.396Z,50.67
2023-05-10T07:59:04.692Z,51.32
2023-05-10T08:02:07.529Z,50.42
2023-05-10T08:05:10.440Z,52.02
2023-05-10T08:08:13.657Z,54.38
2023-05-10T08:11:18.359Z,54.04
2023-05-10T08:14:21.408Z,55.33
2023-05-10T08:17:24.793Z,54.98
2023-05-10T08:20:27.812Z,54.75
2023-05-10T08:23:30.295Z,53.95
2023-05-10T08:26:34.514Z,53.10
2023-05-10T08:29:48.959Z,54.23
2023-05-10T08:32:52.991Z,54.80
2023-05-10T08:35:55.619Z,54.63
2023-05-10T08:38:58.116Z,53.76
2023-05-10T08:42:04.516Z,53.92
2023-05-10T08:45:08.585Z,54.70
2023-05-10T08:48:12.748Z,54.58
2023-05-10T08:51:17.492Z,52.65
2023-05-10T08:54:20.548Z,53.23
2023-05-10T08:57:24.687Z,51.78
2023-05-10T09:00:27.420Z,49.34
2023-05-10T09:03:30.075Z,48.03
2023-05-10T09:06:33.112Z,47.69
2023-05-10T09:09:35.969Z,47.72
2023-05-10T09:12:40.286Z,45.62
2023-05-10T09:15:43.294Z,46.62
2023-05-10T09:18:46.003Z,46.32
2023-05-10T09:21:48.552Z,47.43
2023-05-10T09:25:05.585Z,50.49
2023-05-10T09:28:10.458Z,51.01
2023-05-10T09:31:13.741Z,50.03
2023-05-10T09:34:20.042Z,48.23
2023-05-10T09:37:31.306Z,47.06
2023-05-10T09:40:34.084Z,45.21
2023-05-10T09:43:40.979Z,43.26
2023-05-10T09:46:43.638Z,42.28
2023-05-10T09:49:46.269Z,43.57
2023-05-10T09:52:51.397Z,42.48
2023-05-10T09:55:53.897Z,44.11
2023-05-10T09:59:05.647Z,44.28
2023-05-10T10:02:08.613Z,44.52
2023-05-10T10:05:11.762Z,44.88
2023-05-10T10:08:15.222Z,46.37
2023-05-10T10:11:18.110Z,46.51
2023-05-10T10:14:22.298Z,46.49
2023-05-10T10:17:26.423Z,48.90
2023-05-10T10:20:31.099Z,50.02
2023-05-10T10:23:33.861Z,50.13
2023-05-10T10:26:39.318Z,47.22
2023-05-10T10:29:50.436Z,43.62
2023-05-10T10:33:20.617Z,42.72
2023-05-10T10:36:31.372Z,42.14
2023-05-10T10:39:34.346Z,42.38
2023-05-10T10:42:47.019Z,42.41
2023-05-10T10:46:12.353Z,44.52
2023-05-10T10:49:18.194Z,44.86
2023-05-10T10:52:27.733Z,45.92
2023-05-10T10:55:31.331Z,47.23
2023-05-10T10:58:34.353Z,47.92
2023-05-10T11:01:38.338Z,47.70
2023-05-10T11:04:47.468Z,45.29
2023-05-10T11:07:53.916Z,47.08
2023-05-10T11:11:08.847Z,47.96
2023-05-10T11:14:12.106Z,46.96
2023-05-10T11:17:30.327Z,44.84
2023-05-10T11:20:40.843Z,46.17
2023-05-10T11:23:52.230Z,46.30
2023-05-10T11:26:55.653Z,45.46
2023-05-10T11:29:58.033Z,45.38
2023-05-10T11:33:02.229Z,45.52
2023-05-10T11:36:04.921Z,43.02
2023-05-10T11:39:07.835Z,41.21
2023-05-10T11:42:12.138Z,39.57
2023-05-10T11:45:14.830Z,41.31
2023-05-10T11:48:23.232Z,40.55
2023-05-10T11:51:26.882Z,40.06
2023-05-10T11:54:29.573Z,40.87
2023-05-10T11:57:33.199Z,42.36
2023-05-10T12:00:36.031Z,44.27
2023-05-10T12:03:40.795Z,45.73
2023-05-10T12:06:43.665Z,45.87
2023-05-10T12:09:46.591Z,46.48
2023-05-10T12:12:49.716Z,46.25
2023-05-10T12:15:52.245Z,44.41
2023-05-10T12:18:59.138Z,43.31
2023-05-10T12:22:01.740Z,42.51
2023-05-10T12:25:04.948Z,42.12
2023-05-10T12:28:09.443Z,42.88
2023-05-10T12:31:11.974Z,42.91
2023-05-10T12:34:25.154Z,41.16
2023-05-10T12:37:30.205Z,41.05
2023-05-10T12:40:32.728Z,40.83
2023-05-10T12:43:36.441Z,41.04
2023-05-10T12:46:39.052Z,40.29
2023-05-10T12:49:43.099Z,38.90
2023-05-10T12:52:45.836Z,39.68
2023-05-10T12:55:48.422Z,39.21
2023-05-10T12:58:51.858Z,39.51
2023-05-10T13:01:54.388Z,40.71
2023-05-10T13:04:58.981Z,41.88
2023-05-10T13:08:02.092Z,42.46
2023-05-10T13:11:05.178Z,42.83
2023-05-10T13:14:08.169Z,43.44
2023-05-10T13:17:10.872Z,44.46
2023-05-10T13:20:15.809Z,45.76
2023-05-10T13:23:18.359Z,45.06
2023-05-10T13:26:21.200Z,42.70
2023-05-10T13:29:23.746Z,41.54
2023-05-10T13:32:26.572Z,39.92
2023-05-10T13:35:30.733Z,38.55
2023-05-10T13:38:33.351Z,36.91
2023-05-10T13:41:35.864Z,35.85
2023-05-10T13:44:39.849Z,36.21
2023-05-10T13:47:42.509Z,37.40
2023-05-10T13:50:47.038Z,38.84
2023-05-10T13:53:49.627Z,39.07
2023-05-10T13:56:52.288Z,40.00
2023-05-10T13:59:55.939Z,40.57
2023-05-10T14:03:00.490Z,40.46
2023-05-10T14:06:04.641Z,39.26
2023-05-10T14:09:07.172Z,39.85
2023-05-10T14:12:09.790Z,39.59
2023-05-10T14:15:12.959Z,37.81
2023-05-10T14:18:15.638Z,36.44
2023-05-10T14:21:19.656Z,35.99
2023-05-10T14:24:22.484Z,36.03
2023-05-10T14:27:25.465Z,34.00
2023-05-10T14:30:28.099Z,34.58
2023-05-10T14:33:30.624Z,33.62
2023-05-10T14:36:34.526Z,33.08
2023-05-10T14:39:37.045Z,32.52
2023-05-10T14:42:39.690Z,33.52
2023-05-10T14:45:42.359Z,32.96
2023-05-10T14:48:44.948Z,34.70
2023-05-10T14:51:49.049Z,36.05
2023-05-10T14:54:51.552Z,36.43
2023-05-10T14:57:54.216Z,35.70
2023-05-10T15:00:57.832Z,35.92
2023-05-10T15:04:01.040Z,34.03
2023-05-10T15:07:05.505Z,34.36
2023-05-10T15:10:09.408Z,35.79
2023-05-10T15:13:13.146Z,34.30
2023-05-10T15:16:15.957Z,35.41
2023-05-10T15:19:18.624Z,35.50
2023-05-10T15:22:23.247Z,36.92
2023-05-10T15:25:25.973Z,37.16
2023-05-10T15:28:28.491Z,38.14
2023-05-10T15:31:31.290Z,36.46
2023-05-10T15:34:35.096Z,36.19
2023-05-10T15:37:40.973Z,34.77
2023-05-10T15:40:43.502Z,34.26
2023-05-10T15:43:46.160Z,34.94
2023-05-10T15:46:49.207Z,35.42
2023-05-10T15:49:51.894Z,36.00
2023-05-10T15:52:55.835Z,35.64
2023-05-10T15:55:58.473Z,36.36
2023-05-10T15:59:01.166Z,34.92
2023-05-10T16:02:04.362Z,35.49
2023-05-10T16:05:06.951Z,35.10
2023-05-10T16:08:10.932Z,34.73
2023-05-10T16:11:13.724Z,35.49
2023-05-10T16:14:16.267Z,35.67
2023-05-10T16:17:20.338Z,35.44
2023-05-10T16:20:23.070Z,36.06
2023-05-10T16:23:27.998Z,36.13
2023-05-10T16:26:30.635Z,36.34
2023-05-10T16:29:33.225Z,37.12
2023-05-10T16:32:36.073Z,37.18
2023-05-10T16:35:38.589Z,36.82
2023-05-10T16:38:42.557Z,36.44
2023-05-10T16:41:45.390Z,36.72
2023-05-10T16:44:48.075Z,36.75
2023-05-10T16:47:51.061Z,36.84
2023-05-10T16:50:53.618Z,37.35
2023-05-10T16:53:57.624Z,38.08
2023-05-10T16:57:01.267Z,39.06
2023-05-10T17:00:04.443Z,39.59
2023-05-10T17:03:07.074Z,40.53
2023-05-10T17:06:10.157Z,41.61
2023-05-10T17:09:14.352Z,41.55
2023-05-10T17:12:17.189Z,41.88
2023-05-10T17:15:20.951Z,42.30
2023-05-10T17:18:23.818Z,42.49
2023-05-10T17:21:27.715Z,43.17
2023-05-10T17:24:32.907Z,43.37
2023-05-10T17:27:35.677Z,43.13
2023-05-10T17:30:38.274Z,43.51
2023-05-10T17:33:40.886Z,43.36
2023-05-10T17:36:43.487Z,44.60
2023-05-10T17:39:47.466Z,46.26
2023-05-10T17:42:50.130Z,48.22
2023-05-10T17:45:52.985Z,49.20
2023-05-10T17:48:55.775Z,47.89
2023-05-10T17:51:58.703Z,50.10
2023-05-10T17:55:02.716Z,51.18
2023-05-10T17:58:05.352Z,51.18
2023-05-10T18:01:08.022Z,51.63
2023-05-10T18:04:10.550Z,52.11
2023-05-10T18:07:13.522Z,52.15
2023-05-10T18:10:17.392Z,52.10
2023-05-10T18:13:20.025Z,52.46
2023-05-10T18:16:22.872Z,52.12
2023-05-10T18:19:25.713Z,53.10
2023-05-10T18:22:28.255Z,52.94
2023-05-10T18:25:32.354Z,53.63
2023-05-10T18:28:34.921Z,53.70
2023-05-10T18:31:37.576Z,54.68
2023-05-10T18:34:40.178Z,55.76
2023-05-10T18:37:43.193Z,56.27
2023-05-10T18:40:47.066Z,56.50
2023-05-10T18:43:49.608Z,56.95
2023-05-10T18:46:54.183Z,57.89
2023-05-10T18:49:57.171Z,58.28
2023-05-10T18:52:59.681Z,58.65
2023-05-10T18:56:03.574Z,59.24
2023-05-10T18:59:06.291Z,59.88
2023-05-10T19:02:09.029Z,60.38
2023-05-10T19:05:11.782Z,59.75
2023-05-10T19:08:14.524Z,59.86
2023-05-10T19:11:18.422Z,59.99
2023-05-10T19:14:21.380Z,60.95
2023-05-10T19:17:24.257Z,61.02
2023-05-10T19:20:28.226Z,61.21
2023-05-10T19:23:32.362Z,61.08
2023-05-10T19:26:36.406Z,61.40
2023-05-10T19:29:39.122Z,61.74
2023-05-10T19:32:44.159Z,61.52
2023-05-10T19:35:46.998Z,61.60
2023-05-10T19:38:49.946Z,61.51
2023-05-10T19:41:53.896Z,61.34
2023-05-10T19:44:57.518Z,61.93
2023-05-10T19:48:00.170Z,61.78
2023-05-10T19:51:04.558Z,61.22
2023-05-10T19:54:08.493Z,61.03
2023-05-10T19:57:13.986Z,60.80
2023-05-10T20:00:17.452Z,60.83
2023-05-10T20:03:20.005Z,61.06
2023-05-10T20:06:22.584Z,60.75
2023-05-10T20:09:25.197Z,60.85
2023-05-10T20:12:29.054Z,61.07
2023-05-10T20:15:31.759Z,60.90
2023-05-10T20:18:34.343Z,60.62
2023-05-10T20:21:36.954Z,60.41
2023-05-10T20:24:39.462Z,60.50
2023-05-10T20:27:43.511Z,60.34
2023-05-10T20:30:46.113Z,60.68
2023-05-10T20:33:48.735Z,60.60
2023-05-10T20:36:51.347Z,60.01
2023-05-10T20:39:54.052Z,60.20
2023-05-10T20:42:58.134Z,60.27
2023-05-10T20:46:05.188Z,60.65
2023-05-10T20:49:09.437Z,60.74
2023-05-10T20:52:12.524Z,60.73
2023-05-10T20:55:15.074Z,60.29
2023-05-10T20:58:19.129Z,60.25
2023-05-10T21:01:21.718Z,60.13
2023-05-10T21:04:24.620Z,60.17
2023-05-10T21:07:27.288Z,59.81
2023-05-10T21:10:29.904Z,58.88
2023-05-10T21:13:34.000Z,58.54
2023-05-10T21:16:36.837Z,58.22
2023-05-10T21:19:39.492Z,58.65
2023-05-10T21:22:42.214Z,58.38
2023-05-10T21:25:44.961Z,58.57
2023-05-10T21:28:49.073Z,58.52
2023-05-10T21:31:51.645Z,58.78
2023-05-10T21:34:54.340Z,58.80
2023-05-10T21:37:57.292Z,59.23
2023-05-10T21:40:59.903Z,59.37
2023-05-10T21:44:03.824Z,59.77
2023-05-10T21:47:06.502Z,59.44
2023-05-10T21:50:10.398Z,59.81
2023-05-10T21:53:13.117Z,60.04
2023-05-10T21:56:15.880Z,60.05
2023-05-10T21:59:21.423Z,60.43
2023-05-10T22:02:24.088Z,60.68
2023-05-10T22:05:27.082Z,60.86
2023-05-10T22:08:29.809Z,60.87
2023-05-10T22:11:32.464Z,60.71
2023-05-10T22:14:36.593Z,61.04
2023-05-10T22:17:40.334Z,60.99
2023-05-10T22:20:45.584Z,61.12
2023-05-10T22:23:48.422Z,61.10
2023-05-10T22:26:51.423Z,61.36
2023-05-10T22:29:55.360Z,61.66
2023-05-10T22:32:59.989Z,62.05
2023-05-10T22:36:02.664Z,62.32
2023-05-10T22:39:05.456Z,62.38
2023-05-10T22:42:08.129Z,62.88
2023-05-10T22:45:12.957Z,62.77
2023-05-10T22:48:16.073Z,63.03
2023-05-10T22:51:18.688Z,63.12
2023-05-10T22:54:21.376Z,63.17
2023-05-10T22:57:24.444Z,62.99
2023-05-10T23:00:28.385Z,63.14
2023-05-10T23:03:31.141Z,63.55
2023-05-10T23:06:33.968Z,63.58
2023-05-10T23:09:36.671Z,63.56
2023-05-10T23:12:39.416Z,63.83
2023-05-10T23:15:43.583Z,63.89
2023-05-10T23:18:46.229Z,63.68
2023-05-10T23:21:48.951Z,63.97
2023-05-10T23:24:51.506Z,64.14
2023-05-10T23:27:54.240Z,64.50
2023-05-10T23:30:59.002Z,65.03
2023-05-10T23:34:01.698Z,65.95
2023-05-10T23:37:04.325Z,66.06
2023-05-10T23:40:08.352Z,66.35
2023-05-10T23:43:10.888Z,66.31
2023-05-10T23:46:14.877Z,65.91
2023-05-10T23:49:18.231Z,66.46
2023-05-10T23:52:22.761Z,66.51
2023-05-10T23:55:25.312Z,66.52
2023-05-10T23:58:27.780Z,66.09
